Time;durP1;ratioP1;P1;durP2;ratioP2;P2;SDS_P1;SDS_P2;PMS_P1;PMS_P2;Temp;Humidity;BMP_temperature;BMP_pressure;BME280_temperature;BME280_humidity;BME280_pressure;Samples;Min_cycle;Max_cycle;Signal;HPM_P1;HPM_P2
2023/04/22 00:01:37;;;;;;;7.33;5.67;;;9.20;99.90;;;;;;5115236;28;20241;-69
2023/04/22 00:04:03;;;;;;;6.60;5.73;;;9.20;99.90;;;;;;5114866;28;20173;-68
2023/04/22 00:06:30;;;;;;;7.80;5.80;;;9.20;99.90;;;;;;5115309;28;20660;-68
2023/04/22 00:08:56;;;;;;;8.03;5.70;;;9.20;99.90;;;;;;5113745;28;20633;-69
2023/04/22 00:11:22;;;;;;;8.60;6.17;;;9.20;99.90;;;;;;5113716;28;20183;-68
2023/04/22 00:13:48;;;;;;;6.93;6.23;;;9.10;99.90;;;;;;5113566;28;20180;-68
2023/04/22 00:16:13;;;;;;;7.10;6.40;;;9.10;99.90;;;;;;5114884;28;20192;-68
2023/04/22 00:18:39;;;;;;;9.67;6.23;;;9.10;99.90;;;;;;5113557;28;20183;-69
2023/04/22 00:21:06;;;;;;;8.50;6.00;;;9.10;99.90;;;;;;5115187;28;20196;-68
2023/04/22 00:23:32;;;;;;;8.40;6.00;;;9.00;99.90;;;;;;5114863;28;20161;-68
2023/04/22 00:25:58;;;;;;;7.57;6.37;;;9.00;99.90;;;;;;5113342;28;20199;-68
2023/04/22 00:28:24;;;;;;;7.73;6.40;;;9.00;99.90;;;;;;5114689;28;20642;-68
2023/04/22 00:30:50;;;;;;;7.63;6.47;;;8.90;99.90;;;;;;5115101;28;20247;-68
2023/04/22 00:33:16;;;;;;;6.80;6.10;;;8.80;99.90;;;;;;5113506;28;20180;-68
2023/04/22 00:35:41;;;;;;;7.90;6.47;;;8.80;99.90;;;;;;5114433;27;20244;-67
2023/04/22 00:38:07;;;;;;;8.23;6.43;;;8.90;99.90;;;;;;5114374;28;20173;-68
2023/04/22 00:40:33;;;;;;;9.43;6.73;;;8.80;99.90;;;;;;5114491;28;20239;-68
2023/04/22 00:42:59;;;;;;;7.37;6.57;;;8.70;99.90;;;;;;5113090;28;20180;-69
2023/04/22 00:45:25;;;;;;;7.13;6.40;;;8.60;99.90;;;;;;5114364;28;20198;-68
2023/04/22 00:47:51;;;;;;;7.40;6.00;;;8.60;99.90;;;;;;5114050;28;20622;-68
2023/04/22 00:50:17;;;;;;;7.23;6.30;;;8.50;99.90;;;;;;5113121;28;20550;-68
2023/04/22 00:52:43;;;;;;;8.07;7.00;;;8.40;99.90;;;;;;5114419;28;20185;-68
2023/04/22 00:55:10;;;;;;;7.60;6.37;;;8.30;99.90;;;;;;5114385;28;20249;-69
2023/04/22 00:57:37;;;;;;;7.50;6.70;;;8.30;99.90;;;;;;5114433;28;20203;-70
2023/04/22 01:00:08;;;;;;;9.23;6.27;;;8.30;99.90;;;;;;5112688;28;20548;-70
2023/04/22 01:02:36;;;;;;;8.23;6.27;;;8.30;99.90;;;;;;5114397;28;20199;-70
2023/04/22 01:05:02;;;;;;;7.60;6.83;;;8.40;99.90;;;;;;5112712;28;20208;-70
2023/04/22 01:07:28;;;;;;;9.00;6.97;;;8.40;99.90;;;;;;5114320;28;20299;-70
2023/04/22 01:09:55;;;;;;;8.07;6.80;;;8.50;99.90;;;;;;5112907;28;20262;-70
2023/04/22 01:12:20;;;;;;;8.50;6.50;;;8.50;99.90;;;;;;5114778;28;20616;-70
2023/04/22 01:14:46;;;;;;;7.63;5.93;;;8.60;99.90;;;;;;5114280;28;20269;-69
2023/04/22 01:17:13;;;;;;;8.33;6.97;;;8.60;99.90;;;;;;5114275;28;20662;-69
2023/04/22 01:19:40;;;;;;;7.07;6.37;;;8.60;99.90;;;;;;5112672;28;20184;-69
2023/04/22 01:22:07;;;;;;;7.43;6.37;;;8.60;99.90;;;;;;5114148;28;20204;-69
2023/04/22 01:24:33;;;;;;;7.03;6.07;;;8.60;99.90;;;;;;5113908;28;20203;-69
2023/04/22 01:26:59;;;;;;;10.53;6.60;;;8.70;99.90;;;;;;5113826;28;20634;-69
2023/04/22 01:29:25;;;;;;;6.93;6.20;;;8.70;99.90;;;;;;5112427;28;20203;-69
2023/04/22 01:31:51;;;;;;;8.20;6.77;;;8.70;99.90;;;;;;5112468;28;20176;-69
2023/04/22 01:34:17;;;;;;;7.30;5.90;;;8.70;99.90;;;;;;5114087;28;20184;-68
2023/04/22 01:36:43;;;;;;;7.33;6.40;;;8.70;99.90;;;;;;5113627;28;20203;-69
2023/04/22 01:39:09;;;;;;;8.83;6.93;;;8.70;99.90;;;;;;5113900;28;20181;-69
2023/04/22 01:41:35;;;;;;;11.00;7.20;;;8.70;99.90;;;;;;5113796;28;20690;-69
2023/04/22 01:44:03;;;;;;;7.43;6.67;;;8.60;99.90;;;;;;5112337;28;20173;-69
2023/04/22 01:46:29;;;;;;;7.37;6.20;;;8.50;99.90;;;;;;5113701;28;20208;-69
2023/04/22 01:48:55;;;;;;;7.90;7.10;;;8.50;99.90;;;;;;5114031;28;20586;-70
2023/04/22 01:51:21;;;;;;;9.07;7.10;;;8.60;99.90;;;;;;5113590;28;20207;-70
2023/04/22 01:53:48;;;;;;;7.57;6.77;;;8.60;99.90;;;;;;5113922;28;20221;-70
2023/04/22 01:56:13;;;;;;;8.07;6.77;;;8.60;99.90;;;;;;5112226;28;20676;-69
2023/04/22 01:58:39;;;;;;;8.33;7.00;;;8.60;99.90;;;;;;5112145;28;20209;-70
2023/04/22 02:01:09;;;;;;;8.50;6.80;;;8.60;99.90;;;;;;5116539;28;20208;-70
2023/04/22 02:03:35;;;;;;;10.23;7.00;;;8.50;99.90;;;;;;5117448;28;20168;-70
2023/04/22 02:06:01;;;;;;;8.33;6.63;;;8.50;99.90;;;;;;5117679;28;20660;-70
2023/04/22 02:08:28;;;;;;;7.53;6.53;;;8.50;99.90;;;;;;5115896;27;20181;-70
2023/04/22 02:10:53;;;;;;;6.97;6.27;;;8.40;99.90;;;;;;5117211;28;20172;-70
2023/04/22 02:13:19;;;;;;;6.57;5.83;;;8.40;99.90;;;;;;5115731;28;20172;-70
2023/04/22 02:15:45;;;;;;;7.27;6.07;;;8.30;99.90;;;;;;5117162;28;20196;-71
2023/04/22 02:18:11;;;;;;;6.90;6.20;;;8.30;99.90;;;;;;5117047;28;20238;-70
2023/04/22 02:20:36;;;;;;;7.97;6.33;;;8.20;99.90;;;;;;5115745;28;20202;-70
2023/04/22 02:23:04;;;;;;;7.40;6.40;;;8.10;99.90;;;;;;5117170;28;20683;-70
2023/04/22 02:25:30;;;;;;;7.53;5.87;;;8.10;99.90;;;;;;5116978;28;20676;-71
2023/04/22 02:27:56;;;;;;;6.93;5.87;;;8.20;99.90;;;;;;5116965;28;20168;-70
2023/04/22 02:30:23;;;;;;;7.30;6.10;;;8.20;99.90;;;;;;5116860;28;20218;-71
2023/04/22 02:32:48;;;;;;;9.93;7.07;;;8.20;99.90;;;;;;5116765;28;20188;-70
2023/04/22 02:35:14;;;;;;;9.17;7.00;;;8.30;99.90;;;;;;5116759;28;20207;-70
2023/04/22 02:37:40;;;;;;;8.93;7.10;;;8.30;99.90;;;;;;5116800;28;20689;-70
2023/04/22 02:40:06;;;;;;;12.27;7.67;;;8.30;99.90;;;;;;5115382;28;20176;-70
2023/04/22 02:42:32;;;;;;;8.03;7.23;;;8.30;99.90;;;;;;5116619;28;20219;-70
2023/04/22 02:44:58;;;;;;;9.83;7.80;;;8.30;99.90;;;;;;5116347;28;20562;-70
2023/04/22 02:47:24;;;;;;;9.53;8.03;;;8.30;99.90;;;;;;5116681;28;20183;-70
2023/04/22 02:49:49;;;;;;;8.37;7.40;;;8.30;99.90;;;;;;5115313;28;20578;-71
2023/04/22 02:52:15;;;;;;;9.40;7.70;;;8.30;99.90;;;;;;5115197;28;20213;-70
2023/04/22 02:54:41;;;;;;;9.03;7.70;;;8.30;99.90;;;;;;5115161;28;20215;-70
2023/04/22 02:57:07;;;;;;;8.53;7.60;;;8.20;99.90;;;;;;5116705;28;20180;-72
2023/04/22 02:59:35;;;;;;;12.67;8.63;;;8.20;99.90;;;;;;5116226;28;20552;-69
2023/04/22 03:02:00;;;;;;;9.10;7.60;;;8.30;99.90;;;;;;5115078;28;20204;-68
2023/04/22 03:04:26;;;;;;;9.43;7.83;;;8.30;99.90;;;;;;5116299;28;20173;-69
2023/04/22 03:06:52;;;;;;;8.70;7.80;;;8.20;99.90;;;;;;5115093;28;20229;-68
2023/04/22 03:09:17;;;;;;;10.90;7.90;;;8.20;99.90;;;;;;5116893;28;20175;-69
2023/04/22 03:11:43;;;;;;;9.13;7.60;;;8.20;99.90;;;;;;5116360;28;20577;-71
2023/04/22 03:14:09;;;;;;;9.47;7.93;;;8.20;99.90;;;;;;5114798;28;20180;-70
2023/04/22 03:16:36;;;;;;;11.03;7.90;;;8.20;99.90;;;;;;5114710;28;20660;-71
2023/04/22 03:19:01;;;;;;;9.77;8.27;;;8.20;99.90;;;;;;5116159;28;20169;-70
2023/04/22 03:21:27;;;;;;;11.47;7.97;;;8.10;99.90;;;;;;5115945;28;20200;-71
2023/04/22 03:23:53;;;;;;;11.23;7.03;;;8.10;99.90;;;;;;5114794;28;20192;-71
2023/04/22 03:26:19;;;;;;;8.70;7.80;;;8.10;99.90;;;;;;5115905;28;20201;-71
2023/04/22 03:28:45;;;;;;;9.43;7.73;;;8.10;99.90;;;;;;5115888;28;20574;-71
2023/04/22 03:31:11;;;;;;;9.63;8.00;;;8.10;99.90;;;;;;5115732;28;20176;-71
2023/04/22 03:33:37;;;;;;;9.60;7.63;;;8.10;99.90;;;;;;5115727;28;20547;-71
2023/04/22 03:36:03;;;;;;;9.90;8.20;;;8.10;99.90;;;;;;5115616;28;20288;-71
2023/04/22 03:38:29;;;;;;;9.83;8.80;;;8.10;99.90;;;;;;5116202;28;20271;-71
2023/04/22 03:40:55;;;;;;;10.30;8.03;;;8.10;99.90;;;;;;5115491;28;20181;-71
2023/04/22 03:43:20;;;;;;;10.10;8.23;;;8.10;99.90;;;;;;5115359;28;20211;-71
2023/04/22 03:45:46;;;;;;;11.93;8.70;;;8.10;99.90;;;;;;5115677;28;20197;-71
2023/04/22 03:48:12;;;;;;;12.73;9.20;;;8.10;99.90;;;;;;5115768;28;20177;-72
2023/04/22 03:50:38;;;;;;;11.03;9.27;;;8.10;99.90;;;;;;5115457;28;20180;-71
2023/04/22 03:53:03;;;;;;;12.33;9.27;;;8.10;99.90;;;;;;5115574;28;20206;-71
2023/04/22 03:55:29;;;;;;;12.63;8.63;;;8.10;99.90;;;;;;5115263;28;20241;-70
2023/04/22 03:57:55;;;;;;;12.17;9.07;;;8.10;99.90;;;;;;5115470;28;20230;-70
2023/04/22 04:00:21;;;;;;;9.37;8.27;;;8.10;99.90;;;;;;5114909;28;20185;-71
2023/04/22 04:02:46;;;;;;;9.90;8.17;;;8.20;99.90;;;;;;5115150;28;20204;-71
2023/04/22 04:05:12;;;;;;;10.23;9.03;;;8.20;99.90;;;;;;5115078;27;20287;-71
2023/04/22 04:07:38;;;;;;;11.30;10.00;;;8.20;99.90;;;;;;5115048;28;20168;-71
2023/04/22 04:10:04;;;;;;;9.90;8.60;;;8.20;99.90;;;;;;5115065;28;20176;-71
2023/04/22 04:12:30;;;;;;;10.17;8.63;;;8.10;99.90;;;;;;5115165;28;20176;-71
2023/04/22 04:14:56;;;;;;;11.40;9.10;;;8.10;99.90;;;;;;5113782;28;20207;-71
2023/04/22 04:17:24;;;;;;;9.80;8.80;;;8.20;99.90;;;;;;5115088;28;20640;-71
2023/04/22 04:19:51;;;;;;;9.93;8.70;;;8.20;99.90;;;;;;5115903;28;20180;-71
2023/04/22 04:22:17;;;;;;;10.53;8.97;;;8.30;99.90;;;;;;5114680;28;20208;-71
2023/04/22 04:24:43;;;;;;;9.33;8.30;;;8.30;99.90;;;;;;5116739;28;20191;-71
2023/04/22 04:27:10;;;;;;;10.73;8.57;;;8.30;99.90;;;;;;5116389;28;20651;-71
2023/04/22 04:29:36;;;;;;;11.60;9.10;;;8.30;99.90;;;;;;5115043;28;20172;-70
2023/04/22 04:32:03;;;;;;;14.33;8.40;;;8.30;99.90;;;;;;5114768;27;20183;-70
2023/04/22 04:34:31;;;;;;;10.43;9.33;;;8.20;99.90;;;;;;5114636;28;20229;-70
2023/04/22 04:36:57;;;;;;;13.03;9.17;;;8.30;99.90;;;;;;5113629;27;20599;-71
2023/04/22 04:39:25;;;;;;;10.77;8.80;;;8.30;99.90;;;;;;5114550;28;20238;-70
2023/04/22 04:41:54;;;;;;;12.23;9.50;;;8.30;99.90;;;;;;5114266;28;20694;-70
2023/04/22 04:44:20;;;;;;;11.67;9.40;;;8.30;99.90;;;;;;5113090;28;20230;-71
2023/04/22 04:46:47;;;;;;;12.13;9.67;;;8.30;99.90;;;;;;5114356;28;20200;-71
2023/04/22 04:49:12;;;;;;;12.67;9.20;;;8.30;99.90;;;;;;5113116;28;20179;-71
2023/04/22 04:51:38;;;;;;;11.10;9.37;;;8.30;99.90;;;;;;5113005;28;20180;-71
2023/04/22 04:54:04;;;;;;;10.80;9.17;;;8.30;99.90;;;;;;5113046;28;20263;-71
2023/04/22 04:56:30;;;;;;;10.60;9.13;;;8.30;99.90;;;;;;5112975;28;20196;-71
2023/04/22 04:58:56;;;;;;;11.30;9.17;;;8.30;99.90;;;;;;5114073;28;20540;-71
2023/04/22 05:01:23;;;;;;;14.27;9.10;;;8.30;99.90;;;;;;5114062;28;20287;-71
2023/04/22 05:03:49;;;;;;;12.13;9.23;;;8.30;99.90;;;;;;5112882;28;20172;-71
2023/04/22 05:06:14;;;;;;;11.70;9.20;;;8.30;99.90;;;;;;5114131;28;20328;-71
2023/04/22 05:08:40;;;;;;;11.17;8.87;;;8.30;99.90;;;;;;5114196;28;20165;-71
2023/04/22 05:11:06;;;;;;;11.20;8.60;;;8.40;99.90;;;;;;5113992;28;20188;-71
2023/04/22 05:13:32;;;;;;;15.40;9.30;;;8.40;99.90;;;;;;5113920;28;20575;-71
2023/04/22 05:15:58;;;;;;;9.97;8.50;;;8.30;99.90;;;;;;5113941;28;20196;-70
2023/04/22 05:18:24;;;;;;;10.80;8.73;;;8.40;99.90;;;;;;5112659;28;20185;-70
2023/04/22 05:20:50;;;;;;;11.83;9.60;;;8.40;99.90;;;;;;5116404;28;20173;-71
2023/04/22 05:23:16;;;;;;;13.90;10.70;;;8.40;99.90;;;;;;5113908;28;20184;-73
2023/04/22 05:25:42;;;;;;;19.87;14.63;;;8.50;99.90;;;;;;5113848;28;20196;-73
2023/04/22 05:28:08;;;;;;;18.03;13.10;;;8.50;99.90;;;;;;5112612;28;20184;-70
2023/04/22 05:30:34;;;;;;;14.00;11.60;;;8.50;99.90;;;;;;5113870;28;20651;-71
2023/04/22 05:33:00;;;;;;;12.87;10.30;;;8.50;99.90;;;;;;5113825;28;20249;-69
2023/04/22 05:35:26;;;;;;;14.63;11.47;;;8.60;99.90;;;;;;5117684;28;20208;-69
2023/04/22 05:37:52;;;;;;;14.43;11.27;;;8.60;99.90;;;;;;5116585;28;20214;-69
2023/04/22 05:40:18;;;;;;;13.27;10.50;;;8.70;99.90;;;;;;5116681;28;20587;-69
2023/04/22 05:42:43;;;;;;;14.97;11.47;;;8.80;99.90;;;;;;5117622;28;20692;-69
2023/04/22 05:45:09;;;;;;;16.37;12.13;;;8.90;99.90;;;;;;5117647;28;20184;-68
2023/04/22 05:47:35;;;;;;;15.17;11.73;;;9.00;99.90;;;;;;5118301;28;20200;-68
2023/04/22 05:50:01;;;;;;;17.10;11.30;;;9.00;99.90;;;;;;5116266;28;20208;-68
2023/04/22 05:52:27;;;;;;;13.30;10.53;;;9.10;99.90;;;;;;5117817;28;20171;-68
2023/04/22 05:54:53;;;;;;;15.87;10.93;;;9.10;99.90;;;;;;5117431;28;20204;-68
2023/04/22 05:57:18;;;;;;;14.37;10.80;;;9.20;99.90;;;;;;5116219;28;20183;-68
2023/04/22 05:59:45;;;;;;;15.00;11.00;;;9.20;99.90;;;;;;5117649;28;20623;-69
2023/04/22 06:02:10;;;;;;;12.07;10.40;;;9.30;99.90;;;;;;5117475;28;20199;-69
2023/04/22 06:04:36;;;;;;;13.77;11.57;;;9.40;99.90;;;;;;5117410;27;20177;-69
2023/04/22 06:07:02;;;;;;;12.47;10.03;;;9.50;99.90;;;;;;5117836;28;20613;-69
2023/04/22 06:09:28;;;;;;;14.77;10.93;;;9.60;99.90;;;;;;5116298;28;20187;-68
2023/04/22 06:11:53;;;;;;;13.37;10.43;;;9.70;99.90;;;;;;5117676;28;20168;-68
2023/04/22 06:14:19;;;;;;;12.73;10.53;;;9.80;99.90;;;;;;5116929;28;20624;-69
2023/04/22 06:16:45;;;;;;;14.53;10.33;;;9.90;99.90;;;;;;5115680;28;20211;-68
2023/04/22 06:19:11;;;;;;;13.23;10.37;;;10.10;99.90;;;;;;5115760;28;20219;-68
2023/04/22 06:21:39;;;;;;;16.15;10.80;;;10.20;99.90;;;;;;5116833;28;20200;-68
2023/04/22 06:24:05;;;;;;;14.60;10.70;;;10.40;99.90;;;;;;5115625;28;20176;-68
2023/04/22 06:26:31;;;;;;;13.68;10.95;;;10.50;99.90;;;;;;5115543;28;20230;-68
2023/04/22 06:28:56;;;;;;;14.55;11.27;;;10.60;99.90;;;;;;5116677;28;20176;-68
2023/04/22 06:31:22;;;;;;;14.48;11.43;;;10.70;99.90;;;;;;5116742;28;20211;-68
2023/04/22 06:33:48;;;;;;;12.68;11.38;;;10.90;99.90;;;;;;5116678;28;20180;-68
2023/04/22 06:36:14;;;;;;;14.95;11.07;;;11.10;99.90;;;;;;5116555;28;20232;-68
2023/04/22 06:38:39;;;;;;;11.93;10.63;;;11.30;99.90;;;;;;5115371;28;20597;-68
2023/04/22 06:41:05;;;;;;;15.02;10.38;;;11.40;99.90;;;;;;5116506;28;20207;-68
2023/04/22 06:43:31;;;;;;;10.15;8.50;;;11.60;99.90;;;;;;5116563;28;20561;-68
2023/04/22 06:45:57;;;;;;;11.93;9.67;;;11.70;99.90;;;;;;5114111;28;20615;-68
2023/04/22 06:48:23;;;;;;;12.35;8.93;;;11.80;99.90;;;;;;5116824;28;20259;-73
2023/04/22 06:50:49;;;;;;;9.82;8.80;;;12.00;99.90;;;;;;5115252;28;20666;-73
2023/04/22 06:53:15;;;;;;;10.52;9.40;;;12.10;99.90;;;;;;5116696;28;20255;-73
2023/04/22 06:55:42;;;;;;;10.15;8.60;;;12.30;99.90;;;;;;5117223;28;20187;-69
2023/04/22 06:58:08;;;;;;;10.63;9.07;;;12.50;99.90;;;;;;5115244;28;20189;-70
2023/04/22 07:00:33;;;;;;;9.55;8.48;;;12.60;99.90;;;;;;5116018;28;20188;-70
2023/04/22 07:02:59;;;;;;;10.00;8.75;;;12.70;99.90;;;;;;5116736;28;20196;-71
2023/04/22 07:05:25;;;;;;;10.85;8.65;;;12.90;99.90;;;;;;5114841;27;20340;-71
2023/04/22 07:07:51;;;;;;;7.90;6.95;;;13.00;99.90;;;;;;5116174;28;20165;-71
2023/04/22 07:10:17;;;;;;;8.70;6.40;;;13.10;99.90;;;;;;5116020;28;20188;-71
2023/04/22 07:12:43;;;;;;;6.25;5.38;;;13.20;99.90;;;;;;5115903;28;20176;-71
2023/04/22 07:15:09;;;;;;;6.13;5.43;;;13.40;99.90;;;;;;5115974;28;20215;-71
2023/04/22 07:17:35;;;;;;;8.82;5.57;;;13.60;99.90;;;;;;5114637;28;20229;-70
2023/04/22 07:20:01;;;;;;;8.35;5.20;;;13.80;99.90;;;;;;5115878;28;20629;-70
2023/04/22 07:22:27;;;;;;;5.20;4.65;;;13.90;99.90;;;;;;5114446;28;20200;-70
2023/04/22 07:24:52;;;;;;;7.18;4.97;;;14.10;99.90;;;;;;5114454;28;20200;-70
2023/04/22 07:27:18;;;;;;;7.35;4.80;;;14.20;99.90;;;;;;5115762;28;20176;-70
2023/04/22 07:29:44;;;;;;;6.75;4.47;;;14.30;99.90;;;;;;5115682;28;20192;-70
2023/04/22 07:32:10;;;;;;;6.68;4.32;;;14.40;99.90;;;;;;5114457;28;20552;-70
2023/04/22 07:34:35;;;;;;;4.25;3.85;;;14.50;99.90;;;;;;5115981;28;20548;-70
2023/04/22 07:37:01;;;;;;;5.63;3.85;;;14.60;99.90;;;;;;5114244;28;20184;-70
2023/04/22 07:39:27;;;;;;;4.65;4.22;;;14.60;99.90;;;;;;5114049;28;20210;-70
2023/04/22 07:41:55;;;;;;;4.45;4.05;;;14.60;99.90;;;;;;5115396;28;20575;-70
2023/04/22 07:44:21;;;;;;;4.13;3.70;;;14.70;99.90;;;;;;5115471;28;20160;-71
2023/04/22 07:46:47;;;;;;;5.65;4.10;;;14.80;99.90;;;;;;5115494;28;20192;-70
2023/04/22 07:49:15;;;;;;;5.15;3.95;;;14.90;99.90;;;;;;5115437;28;20195;-70
2023/04/22 07:51:42;;;;;;;3.97;3.63;;;15.20;99.90;;;;;;5114072;28;20176;-70
2023/04/22 07:54:08;;;;;;;5.03;3.70;;;15.50;99.90;;;;;;5115238;28;20200;-70
2023/04/22 07:56:34;;;;;;;4.05;3.40;;;15.80;99.90;;;;;;5115108;28;20629;-70
2023/04/22 07:58:59;;;;;;;4.72;3.53;;;16.10;99.90;;;;;;5115094;28;20176;-70
2023/04/22 08:01:25;;;;;;;3.88;3.45;;;16.20;99.90;;;;;;5115135;28;20287;-70
2023/04/22 08:03:51;;;;;;;3.95;3.13;;;16.40;99.90;;;;;;5115382;28;20157;-71
2023/04/22 08:06:17;;;;;;;4.13;3.60;;;16.40;99.90;;;;;;5114872;28;20197;-70
2023/04/22 08:08:42;;;;;;;4.35;3.17;;;16.60;99.90;;;;;;5113660;28;20179;-70
2023/04/22 08:11:08;;;;;;;4.60;3.90;;;16.80;99.90;;;;;;5113556;28;20168;-70
2023/04/22 08:13:34;;;;;;;3.53;3.20;;;17.00;99.90;;;;;;5115369;28;20183;-70
2023/04/22 08:16:02;;;;;;;3.92;3.55;;;17.10;99.90;;;;;;5113299;28;20195;-71
2023/04/22 08:18:28;;;;;;;5.68;3.50;;;17.30;99.90;;;;;;5114705;28;20169;-70
2023/04/22 08:20:53;;;;;;;5.43;3.47;;;17.70;99.90;;;;;;5113352;28;20183;-70
2023/04/22 08:23:20;;;;;;;3.80;3.30;;;18.10;99.90;;;;;;5113585;28;20195;-70
2023/04/22 08:25:47;;;;;;;6.18;3.20;;;18.80;99.90;;;;;;5113209;28;20189;-70
2023/04/22 08:28:14;;;;;;;4.22;3.00;;;19.90;99.90;;;;;;5113183;28;20654;-71
2023/04/22 08:30:40;;;;;;;3.17;2.97;;;20.90;99.90;;;;;;5114440;28;20217;-70
2023/04/22 08:33:06;;;;;;;4.07;2.85;;;21.20;99.90;;;;;;5114439;28;20177;-71
2023/04/22 08:35:34;;;;;;;3.65;2.92;;;21.70;99.90;;;;;;5114331;28;20294;-71
2023/04/22 08:38:00;;;;;;;2.95;2.60;;;22.00;99.90;;;;;;5113231;28;20173;-71
2023/04/22 08:40:27;;;;;;;5.75;2.88;;;22.30;99.90;;;;;;5114727;28;20263;-71
2023/04/22 08:42:54;;;;;;;2.97;2.65;;;22.20;99.90;;;;;;5114357;28;20419;-71
2023/04/22 08:45:20;;;;;;;3.75;2.50;;;22.80;99.90;;;;;;5114274;28;20683;-71
2023/04/22 08:47:50;;;;;;;3.10;2.80;;;22.50;99.90;;;;;;5114481;28;20682;-71
2023/04/22 08:50:18;;;;;;;3.40;2.72;;;21.50;99.90;;;;;;5112883;28;20161;-71
2023/04/22 08:52:44;;;;;;;4.18;2.95;;;21.60;99.90;;;;;;5112835;28;20182;-71
2023/04/22 08:55:10;;;;;;;3.20;2.65;;;22.00;99.90;;;;;;5114329;28;20248;-70
2023/04/22 08:57:38;;;;;;;3.63;2.80;;;22.30;99.90;;;;;;5114431;28;20224;-71
2023/04/22 09:00:05;;;;;;;3.33;2.80;;;22.10;99.90;;;;;;5113851;28;20191;-71
2023/04/22 09:02:32;;;;;;;3.08;2.78;;;21.90;99.90;;;;;;5113972;28;20252;-71
2023/04/22 09:05:01;;;;;;;3.20;2.90;;;21.90;99.90;;;;;;5112592;27;20703;-71
2023/04/22 09:07:29;;;;;;;4.70;2.90;;;22.10;99.90;;;;;;5113107;28;20492;-71
2023/04/22 09:09:56;;;;;;;4.05;2.80;;;22.50;99.90;;;;;;5113618;28;20277;-71
2023/04/22 09:12:22;;;;;;;2.95;2.65;;;22.90;99.90;;;;;;5112654;28;20183;-71
2023/04/22 09:14:48;;;;;;;3.35;2.90;;;22.40;99.90;;;;;;5113806;28;20696;-71
2023/04/22 09:17:28;;;;;;;2.67;2.47;;;21.80;99.90;;;;;;5112467;28;20209;-71
2023/04/22 09:20:01;;;;;;;4.00;3.20;;;21.40;99.90;;;;;;5114078;28;20169;-71
2023/04/22 09:22:28;;;;;;;4.82;2.58;;;21.40;99.90;;;;;;5112490;28;20208;-70
2023/04/22 09:24:54;;;;;;;2.90;2.60;;;21.10;99.90;;;;;;5114058;28;20188;-71
2023/04/22 09:27:23;;;;;;;3.17;2.88;;;21.60;99.90;;;;;;5113764;28;20259;-71
2023/04/22 09:29:51;;;;;;;3.00;2.60;;;22.00;99.90;;;;;;5112498;28;20260;-70
2023/04/22 09:32:17;;;;;;;2.72;2.50;;;22.00;99.90;;;;;;5114236;28;20173;-70
2023/04/22 09:34:52;;;;;;;4.43;2.50;;;21.70;99.90;;;;;;5107041;28;20188;-68
2023/04/22 09:37:24;;;;;;;4.43;2.88;;;21.60;99.90;;;;;;5093571;28;20164;-69
2023/04/22 09:39:50;;;;;;;3.20;2.58;;;21.20;99.90;;;;;;5093658;28;20153;-69
2023/04/22 09:42:17;;;;;;;4.88;3.05;;;20.90;99.90;;;;;;5093118;28;20201;-69
2023/04/22 09:44:51;;;;;;;3.60;2.88;;;21.00;99.90;;;;;;5093039;28;20181;-69
2023/04/22 09:47:19;;;;;;;3.50;2.72;;;21.10;99.90;;;;;;5093383;28;20204;-69
2023/04/22 09:49:46;;;;;;;2.97;2.67;;;21.20;99.90;;;;;;5091864;28;20177;-69
2023/04/22 09:52:25;;;;;;;4.15;2.53;;;21.20;99.90;;;;;;5093294;28;20646;-69
2023/04/22 09:54:52;;;;;;;4.13;2.70;;;21.30;99.90;;;;;;5093106;28;20197;-69
2023/04/22 09:57:18;;;;;;;4.85;2.67;;;21.50;99.90;;;;;;5093183;28;20180;-69
2023/04/22 09:59:44;;;;;;;4.68;2.65;;;22.00;99.90;;;;;;5092844;28;20192;-69
2023/04/22 10:02:10;;;;;;;5.03;2.70;;;22.10;99.90;;;;;;5093082;28;20205;-70
2023/04/22 10:04:36;;;;;;;4.93;2.75;;;21.60;99.90;;;;;;5098505;28;20537;-70
2023/04/22 10:07:02;;;;;;;3.47;2.55;;;21.60;99.90;;;;;;5112143;28;20187;-69
2023/04/22 10:09:28;;;;;;;5.07;2.78;;;21.80;99.90;;;;;;5112103;28;20264;-69
2023/04/22 10:11:58;;;;;;;5.35;2.55;;;22.00;99.90;;;;;;5113741;28;20660;-69
2023/04/22 10:14:24;;;;;;;3.67;2.70;;;21.40;99.90;;;;;;5112257;28;20199;-69
2023/04/22 10:16:59;;;;;;;3.92;2.80;;;21.40;99.90;;;;;;5114516;28;20211;-69
2023/04/22 10:19:26;;;;;;;3.63;2.38;;;20.90;99.90;;;;;;5113264;28;20685;-69
2023/04/22 10:21:55;;;;;;;2.63;2.42;;;20.90;99.90;;;;;;5115325;28;20676;-69
2023/04/22 10:24:25;;;;;;;2.53;2.33;;;21.20;99.90;;;;;;5116596;28;20200;-69
2023/04/22 10:26:55;;;;;;;2.50;2.30;;;21.50;99.90;;;;;;5116012;28;20203;-69
2023/04/22 10:29:21;;;;;;;3.42;2.47;;;21.50;99.90;;;;;;5115736;28;20175;-69
2023/04/22 10:32:23;;;;;;;3.55;2.80;;;21.50;99.90;;;;;;5116949;28;20244;-69
2023/04/22 10:35:05;;;;;;;4.88;2.50;;;21.50;99.90;;;;;;5116564;28;20710;-69
2023/04/22 10:37:32;;;;;;;4.13;2.40;;;21.30;99.90;;;;;;5117353;28;20167;-69
2023/04/22 10:40:15;;;;;;;5.63;2.50;;;21.30;99.90;;;;;;5117874;28;20185;-73
2023/04/22 10:42:50;;;;;;;2.67;2.38;;;21.40;99.90;;;;;;5117236;28;20210;-69
2023/04/22 10:45:16;;;;;;;2.55;2.22;;;21.50;99.90;;;;;;5116744;28;20184;-69
2023/04/22 10:47:42;;;;;;;3.35;2.50;;;21.50;99.90;;;;;;5116568;28;20175;-69
2023/04/22 10:50:22;;;;;;;2.38;2.20;;;21.20;99.90;;;;;;5116727;28;20184;-69
2023/04/22 10:52:54;;;;;;;3.25;2.60;;;21.30;99.90;;;;;;5115183;28;20225;-69
2023/04/22 10:55:21;;;;;;;3.92;2.55;;;21.60;99.90;;;;;;5116275;28;20629;-69
2023/04/22 10:57:49;;;;;;;3.40;2.60;;;21.80;99.90;;;;;;5116585;28;20168;-69
2023/04/22 11:00:23;;;;;;;3.17;2.38;;;22.00;99.90;;;;;;5116279;28;20192;-69
2023/04/22 11:03:04;;;;;;;3.30;2.50;;;22.30;99.90;;;;;;5114926;28;20665;-69
2023/04/22 11:05:30;;;;;;;3.60;2.78;;;22.40;99.90;;;;;;5116096;28;20211;-69
2023/04/22 11:08:03;;;;;;;5.55;2.83;;;22.20;99.90;;;;;;5116447;28;20247;-69
2023/04/22 11:10:31;;;;;;;2.97;2.40;;;21.90;99.90;;;;;;5116362;28;20165;-69
2023/04/22 11:12:57;;;;;;;3.63;2.60;;;22.20;99.90;;;;;;5114705;28;20266;-69
2023/04/22 11:15:23;;;;;;;5.50;2.67;;;22.40;99.90;;;;;;5115807;28;20199;-69
2023/04/22 11:17:53;;;;;;;2.95;2.58;;;22.60;99.90;;;;;;5116248;28;20172;-69
2023/04/22 11:20:19;;;;;;;7.43;2.63;;;22.60;99.90;;;;;;5114568;28;20231;-69
2023/04/22 11:22:47;;;;;;;4.80;2.60;;;22.00;99.90;;;;;;5114541;28;20294;-69
2023/04/22 11:25:14;;;;;;;2.65;2.33;;;21.80;99.90;;;;;;5115753;28;20257;-69
2023/04/22 11:27:44;;;;;;;3.72;2.70;;;21.30;99.90;;;;;;5115657;28;20201;-69
2023/04/22 11:30:13;;;;;;;3.13;2.50;;;21.30;99.90;;;;;;5114677;28;20544;-69
2023/04/22 11:32:46;;;;;;;3.25;2.60;;;21.50;99.90;;;;;;5115313;28;20524;-69
2023/04/22 11:35:15;;;;;;;4.28;2.60;;;21.60;99.90;;;;;;5115602;28;20200;-69
2023/04/22 11:37:42;;;;;;;2.90;2.60;;;21.90;99.90;;;;;;5116185;28;20523;-69
2023/04/22 11:40:11;;;;;;;4.22;2.95;;;22.10;99.90;;;;;;5115424;28;20241;-69
2023/04/22 11:42:37;;;;;;;3.08;2.65;;;22.30;99.90;;;;;;5114163;28;20204;-69
2023/04/22 11:45:04;;;;;;;5.68;2.53;;;22.50;99.90;;;;;;5113972;28;20220;-69
2023/04/22 11:47:30;;;;;;;3.95;2.67;;;22.30;99.90;;;;;;5115357;28;20169;-69
2023/04/22 11:49:58;;;;;;;5.18;2.53;;;21.90;99.90;;;;;;5114113;27;20168;-69
2023/04/22 11:52:44;;;;;;;3.38;2.40;;;21.80;99.90;;;;;;5116027;28;20573;-69
2023/04/22 11:55:14;;;;;;;3.88;2.78;;;21.70;99.90;;;;;;5113920;28;20204;-69
2023/04/22 11:57:41;;;;;;;7.22;2.65;;;21.70;99.90;;;;;;5115204;28;20163;-68
2023/04/22 12:00:11;;;;;;;4.47;3.10;;;21.40;99.90;;;;;;5113650;28;20283;-69
2023/04/22 12:02:37;;;;;;;5.13;2.72;;;21.20;99.90;;;;;;5115246;28;20271;-69
2023/04/22 12:05:03;;;;;;;4.03;2.90;;;21.20;99.90;;;;;;5113766;28;20631;-69
2023/04/22 12:07:31;;;;;;;3.83;2.47;;;21.20;99.90;;;;;;5115233;28;20256;-69
2023/04/22 12:09:58;;;;;;;5.00;2.78;;;21.10;99.90;;;;;;5114831;28;20175;-69
2023/04/22 12:12:25;;;;;;;6.18;3.15;;;21.20;99.90;;;;;;5113568;28;20229;-69
2023/04/22 12:14:51;;;;;;;3.72;2.80;;;21.20;99.90;;;;;;5113419;28;20233;-69
2023/04/22 12:17:24;;;;;;;4.50;2.58;;;21.30;99.90;;;;;;5114826;28;20176;-69
2023/04/22 12:19:56;;;;;;;4.90;2.80;;;21.30;99.90;;;;;;5113553;28;20181;-69
2023/04/22 12:22:29;;;;;;;5.70;3.00;;;21.20;99.90;;;;;;5114586;28;20276;-69
2023/04/22 12:24:58;;;;;;;3.72;2.63;;;21.10;99.90;;;;;;5113267;28;20199;-69
2023/04/22 12:27:25;;;;;;;7.40;2.58;;;21.00;99.90;;;;;;5113526;28;20192;-70
2023/04/22 12:29:52;;;;;;;4.32;2.67;;;20.90;99.90;;;;;;5114700;28;20172;-69
2023/04/22 12:32:20;;;;;;;2.63;2.30;;;21.00;99.90;;;;;;5114880;28;20171;-70
2023/04/22 12:34:46;;;;;;;3.05;2.60;;;21.10;99.90;;;;;;5114335;28;20180;-69
2023/04/22 12:37:11;;;;;;;4.20;3.08;;;21.30;99.90;;;;;;5113089;28;20198;-69
2023/04/22 12:39:37;;;;;;;4.50;2.75;;;21.10;99.90;;;;;;5113268;28;20648;-69
2023/04/22 12:42:04;;;;;;;3.55;2.60;;;21.20;99.90;;;;;;5112991;28;20272;-69
2023/04/22 12:44:30;;;;;;;3.83;2.88;;;21.20;99.90;;;;;;5113598;28;20164;-69
2023/04/22 12:46:56;;;;;;;3.65;2.90;;;21.10;99.90;;;;;;5114345;27;20194;-69